< < Back
Terminal Aerodrome Forecast


Current Version              Previous Versions:   1  2  3  4  5  6  7  8  9  

Terminal Aerodrome Forecast

256
FTUS42 KCHS 021405 AAA
TAFSAV
TAF AMD
KSAV 021405Z 0214/0312 28003KT 1/4SM FG VV002
     FM021500 31004KT 5SM BR SCT002 OVC008
     FM021800 32007KT P6SM SCT025 BKN050
     FM030200 05005KT P6SM SCT005 BKN025
     FM030800 06010KT 5SM BR VCSH BKN006 OVC012=

Latest METAR

796
SAUS80 KWBC 022300 RRC
MTRSAV
METAR KSAV 022253Z 25006KT 10SM FEW090 OVC250 23/14 A3020 RMK AO2 SLP225
T02280144 $


USA.gov is the U.S. government's official web portal to all federal, state and local government web resources and services.